sensor_id;sensor_type;location;lat;lon;timestamp;P1;durP1;ratioP1;P2;durP2;ratioP2
46589;SDS011;32313;48.722;9.362;2023-04-03T00:01:15;9.13;;;8.43;;
46589;SDS011;32313;48.722;9.362;2023-04-03T00:03:41;9.23;;;8.60;;
46589;SDS011;32313;48.722;9.362;2023-04-03T00:06:08;9.27;;;8.50;;
46589;SDS011;32313;48.722;9.362;2023-04-03T00:08:35;11.47;;;9.20;;
46589;SDS011;32313;48.722;9.362;2023-04-03T00:11:02;10.00;;;9.30;;
46589;SDS011;32313;48.722;9.362;2023-04-03T00:13:28;9.17;;;8.47;;
46589;SDS011;32313;48.722;9.362;2023-04-03T00:15:54;8.87;;;8.27;;
46589;SDS011;32313;48.722;9.362;2023-04-03T00:18:20;9.07;;;8.47;;
46589;SDS011;32313;48.722;9.362;2023-04-03T00:20:46;8.33;;;7.73;;
46589;SDS011;32313;48.722;9.362;2023-04-03T00:23:12;8.40;;;7.90;;
46589;SDS011;32313;48.722;9.362;2023-04-03T00:25:37;9.00;;;8.40;;
46589;SDS011;32313;48.722;9.362;2023-04-03T00:28:04;9.70;;;9.00;;
46589;SDS011;32313;48.722;9.362;2023-04-03T00:30:30;8.57;;;7.97;;
46589;SDS011;32313;48.722;9.362;2023-04-03T00:32:56;10.17;;;9.47;;
46589;SDS011;32313;48.722;9.362;2023-04-03T00:35:22;9.47;;;8.63;;
46589;SDS011;32313;48.722;9.362;2023-04-03T00:37:50;9.17;;;8.47;;
46589;SDS011;32313;48.722;9.362;2023-04-03T00:40:17;9.30;;;8.70;;
46589;SDS011;32313;48.722;9.362;2023-04-03T00:42:44;9.47;;;8.67;;
46589;SDS011;32313;48.722;9.362;2023-04-03T00:45:31;9.10;;;8.40;;
46589;SDS011;32313;48.722;9.362;2023-04-03T00:47:59;10.30;;;9.40;;
46589;SDS011;32313;48.722;9.362;2023-04-03T00:50:28;9.23;;;8.63;;
46589;SDS011;32313;48.722;9.362;2023-04-03T00:52:55;9.90;;;9.20;;
46589;SDS011;32313;48.722;9.362;2023-04-03T00:55:21;9.50;;;8.80;;
46589;SDS011;32313;48.722;9.362;2023-04-03T00:57:48;8.63;;;8.10;;
46589;SDS011;32313;48.722;9.362;2023-04-03T01:00:16;10.00;;;9.13;;
46589;SDS011;32313;48.722;9.362;2023-04-03T01:02:45;9.63;;;8.93;;
46589;SDS011;32313;48.722;9.362;2023-04-03T01:05:12;9.57;;;8.83;;
46589;SDS011;32313;48.722;9.362;2023-04-03T01:07:41;10.07;;;9.37;;
46589;SDS011;32313;48.722;9.362;2023-04-03T01:10:09;9.97;;;9.23;;
46589;SDS011;32313;48.722;9.362;2023-04-03T01:12:39;10.13;;;9.33;;
46589;SDS011;32313;48.722;9.362;2023-04-03T01:15:07;8.70;;;8.20;;
46589;SDS011;32313;48.722;9.362;2023-04-03T01:17:46;9.63;;;9.03;;
46589;SDS011;32313;48.722;9.362;2023-04-03T01:25:36;10.00;;;9.30;;
46589;SDS011;32313;48.722;9.362;2023-04-03T01:28:32;9.57;;;8.87;;
46589;SDS011;32313;48.722;9.362;2023-04-03T01:33:40;9.37;;;8.77;;
46589;SDS011;32313;48.722;9.362;2023-04-03T01:36:07;9.33;;;8.73;;
46589;SDS011;32313;48.722;9.362;2023-04-03T01:38:33;9.73;;;9.13;;
46589;SDS011;32313;48.722;9.362;2023-04-03T01:40:59;9.10;;;8.50;;
46589;SDS011;32313;48.722;9.362;2023-04-03T01:43:25;8.70;;;8.20;;
46589;SDS011;32313;48.722;9.362;2023-04-03T01:45:50;9.13;;;8.53;;
46589;SDS011;32313;48.722;9.362;2023-04-03T01:48:17;9.07;;;8.47;;
46589;SDS011;32313;48.722;9.362;2023-04-03T01:50:43;10.30;;;9.70;;
46589;SDS011;32313;48.722;9.362;2023-04-03T01:53:09;9.37;;;8.67;;
46589;SDS011;32313;48.722;9.362;2023-04-03T01:55:35;10.03;;;9.43;;
46589;SDS011;32313;48.722;9.362;2023-04-03T01:58:00;9.10;;;8.50;;
46589;SDS011;32313;48.722;9.362;2023-04-03T02:00:26;9.20;;;8.70;;
46589;SDS011;32313;48.722;9.362;2023-04-03T02:02:52;9.70;;;9.10;;
46589;SDS011;32313;48.722;9.362;2023-04-03T02:05:18;9.10;;;8.50;;
46589;SDS011;32313;48.722;9.362;2023-04-03T02:07:44;9.97;;;9.27;;
46589;SDS011;32313;48.722;9.362;2023-04-03T02:10:09;9.57;;;8.97;;
46589;SDS011;32313;48.722;9.362;2023-04-03T02:12:36;9.23;;;8.63;;
46589;SDS011;32313;48.722;9.362;2023-04-03T02:15:02;9.27;;;8.67;;
46589;SDS011;32313;48.722;9.362;2023-04-03T02:17:28;9.17;;;8.67;;
46589;SDS011;32313;48.722;9.362;2023-04-03T02:19:53;9.23;;;8.70;;
46589;SDS011;32313;48.722;9.362;2023-04-03T02:22:19;9.67;;;9.03;;
46589;SDS011;32313;48.722;9.362;2023-04-03T02:24:45;9.50;;;8.80;;
46589;SDS011;32313;48.722;9.362;2023-04-03T02:27:11;9.30;;;8.53;;
46589;SDS011;32313;48.722;9.362;2023-04-03T02:29:37;9.13;;;8.60;;
46589;SDS011;32313;48.722;9.362;2023-04-03T02:32:03;9.70;;;9.00;;
46589;SDS011;32313;48.722;9.362;2023-04-03T02:34:30;9.67;;;9.07;;
46589;SDS011;32313;48.722;9.362;2023-04-03T02:36:58;9.23;;;8.67;;
46589;SDS011;32313;48.722;9.362;2023-04-03T02:39:23;8.87;;;8.17;;
46589;SDS011;32313;48.722;9.362;2023-04-03T02:41:50;10.07;;;9.47;;
46589;SDS011;32313;48.722;9.362;2023-04-03T02:44:21;9.03;;;8.43;;
46589;SDS011;32313;48.722;9.362;2023-04-03T02:46:48;8.93;;;8.17;;
46589;SDS011;32313;48.722;9.362;2023-04-03T02:49:15;8.63;;;8.03;;
46589;SDS011;32313;48.722;9.362;2023-04-03T02:51:41;8.20;;;7.70;;
46589;SDS011;32313;48.722;9.362;2023-04-03T02:54:07;9.13;;;8.63;;
46589;SDS011;32313;48.722;9.362;2023-04-03T02:56:36;9.10;;;8.47;;
46589;SDS011;32313;48.722;9.362;2023-04-03T02:59:02;9.13;;;8.63;;
46589;SDS011;32313;48.722;9.362;2023-04-03T03:01:28;9.43;;;8.83;;
46589;SDS011;32313;48.722;9.362;2023-04-03T03:03:57;9.77;;;9.13;;
46589;SDS011;32313;48.722;9.362;2023-04-03T03:06:26;9.17;;;8.40;;
46589;SDS011;32313;48.722;9.362;2023-04-03T03:08:52;8.90;;;8.20;;
46589;SDS011;32313;48.722;9.362;2023-04-03T03:11:17;8.37;;;7.87;;
46589;SDS011;32313;48.722;9.362;2023-04-03T03:13:43;8.90;;;8.40;;
46589;SDS011;32313;48.722;9.362;2023-04-03T03:16:09;8.10;;;7.60;;
46589;SDS011;32313;48.722;9.362;2023-04-03T03:18:35;8.90;;;8.30;;
46589;SDS011;32313;48.722;9.362;2023-04-03T03:21:02;9.33;;;8.73;;
46589;SDS011;32313;48.722;9.362;2023-04-03T03:23:30;8.77;;;8.27;;
46589;SDS011;32313;48.722;9.362;2023-04-03T03:26:01;8.70;;;8.20;;
46589;SDS011;32313;48.722;9.362;2023-04-03T03:28:29;8.83;;;8.23;;
46589;SDS011;32313;48.722;9.362;2023-04-03T03:30:55;9.40;;;8.70;;
46589;SDS011;32313;48.722;9.362;2023-04-03T03:33:22;8.93;;;8.33;;
46589;SDS011;32313;48.722;9.362;2023-04-03T03:35:48;10.10;;;9.40;;
46589;SDS011;32313;48.722;9.362;2023-04-03T03:38:14;9.40;;;8.70;;
46589;SDS011;32313;48.722;9.362;2023-04-03T03:40:40;9.80;;;8.90;;
46589;SDS011;32313;48.722;9.362;2023-04-03T03:43:07;9.23;;;8.50;;
46589;SDS011;32313;48.722;9.362;2023-04-03T03:45:32;8.20;;;7.70;;
46589;SDS011;32313;48.722;9.362;2023-04-03T03:47:58;9.23;;;8.37;;
46589;SDS011;32313;48.722;9.362;2023-04-03T03:50:24;8.93;;;8.23;;
46589;SDS011;32313;48.722;9.362;2023-04-03T03:52:50;8.37;;;7.63;;
46589;SDS011;32313;48.722;9.362;2023-04-03T03:55:16;9.03;;;8.20;;
46589;SDS011;32313;48.722;9.362;2023-04-03T03:57:43;8.80;;;8.10;;
46589;SDS011;32313;48.722;9.362;2023-04-03T04:00:09;9.23;;;8.53;;
46589;SDS011;32313;48.722;9.362;2023-04-03T04:02:46;9.63;;;8.83;;
46589;SDS011;32313;48.722;9.362;2023-04-03T04:05:15;9.67;;;8.83;;
46589;SDS011;32313;48.722;9.362;2023-04-03T04:07:41;10.53;;;9.53;;
46589;SDS011;32313;48.722;9.362;2023-04-03T04:10:07;11.03;;;10.13;;
46589;SDS011;32313;48.722;9.362;2023-04-03T04:12:33;9.20;;;8.50;;
46589;SDS011;32313;48.722;9.362;2023-04-03T04:15:01;9.37;;;8.47;;
46589;SDS011;32313;48.722;9.362;2023-04-03T04:17:28;8.13;;;7.50;;
46589;SDS011;32313;48.722;9.362;2023-04-03T04:19:54;8.13;;;7.63;;
46589;SDS011;32313;48.722;9.362;2023-04-03T04:22:19;8.93;;;8.33;;
46589;SDS011;32313;48.722;9.362;2023-04-03T04:24:45;7.97;;;7.47;;
46589;SDS011;32313;48.722;9.362;2023-04-03T04:27:11;8.47;;;7.97;;
46589;SDS011;32313;48.722;9.362;2023-04-03T04:29:36;8.70;;;8.20;;
46589;SDS011;32313;48.722;9.362;2023-04-03T04:32:04;8.17;;;7.47;;
46589;SDS011;32313;48.722;9.362;2023-04-03T04:34:30;8.43;;;7.93;;
46589;SDS011;32313;48.722;9.362;2023-04-03T04:36:57;7.93;;;7.43;;
46589;SDS011;32313;48.722;9.362;2023-04-03T04:39:25;10.27;;;8.73;;
46589;SDS011;32313;48.722;9.362;2023-04-03T04:41:53;8.60;;;8.10;;
46589;SDS011;32313;48.722;9.362;2023-04-03T04:44:19;8.77;;;8.23;;
46589;SDS011;32313;48.722;9.362;2023-04-03T04:46:45;8.37;;;7.77;;
46589;SDS011;32313;48.722;9.362;2023-04-03T04:49:11;8.07;;;7.47;;
46589;SDS011;32313;48.722;9.362;2023-04-03T04:51:37;8.73;;;8.23;;
46589;SDS011;32313;48.722;9.362;2023-04-03T04:54:02;8.37;;;7.93;;
46589;SDS011;32313;48.722;9.362;2023-04-03T04:56:28;8.67;;;8.17;;
46589;SDS011;32313;48.722;9.362;2023-04-03T04:58:55;7.93;;;7.50;;
46589;SDS011;32313;48.722;9.362;2023-04-03T05:01:22;8.63;;;8.20;;
46589;SDS011;32313;48.722;9.362;2023-04-03T05:03:57;9.17;;;8.53;;
46589;SDS011;32313;48.722;9.362;2023-04-03T05:06:23;8.23;;;7.67;;
46589;SDS011;32313;48.722;9.362;2023-04-03T05:08:50;7.57;;;7.17;;
46589;SDS011;32313;48.722;9.362;2023-04-03T05:11:16;8.13;;;7.63;;
46589;SDS011;32313;48.722;9.362;2023-04-03T05:13:43;7.97;;;7.50;;
46589;SDS011;32313;48.722;9.362;2023-04-03T05:16:09;8.23;;;7.73;;
46589;SDS011;32313;48.722;9.362;2023-04-03T05:18:35;7.83;;;7.43;;
46589;SDS011;32313;48.722;9.362;2023-04-03T05:21:06;7.70;;;7.20;;
46589;SDS011;32313;48.722;9.362;2023-04-03T05:23:32;8.13;;;7.53;;
46589;SDS011;32313;48.722;9.362;2023-04-03T05:26:00;7.67;;;7.13;;
46589;SDS011;32313;48.722;9.362;2023-04-03T05:28:26;8.07;;;7.67;;
46589;SDS011;32313;48.722;9.362;2023-04-03T05:30:56;8.00;;;7.37;;
46589;SDS011;32313;48.722;9.362;2023-04-03T05:33:25;7.70;;;7.20;;
46589;SDS011;32313;48.722;9.362;2023-04-03T05:35:53;10.93;;;9.83;;
46589;SDS011;32313;48.722;9.362;2023-04-03T05:38:24;11.27;;;10.13;;
46589;SDS011;32313;48.722;9.362;2023-04-03T05:40:50;9.37;;;8.57;;
46589;SDS011;32313;48.722;9.362;2023-04-03T05:43:17;9.37;;;8.53;;
46589;SDS011;32313;48.722;9.362;2023-04-03T05:45:43;8.70;;;8.20;;
46589;SDS011;32313;48.722;9.362;2023-04-03T05:48:09;8.97;;;8.17;;
46589;SDS011;32313;48.722;9.362;2023-04-03T05:50:35;8.60;;;8.00;;
46589;SDS011;32313;48.722;9.362;2023-04-03T05:53:01;7.80;;;7.20;;
46589;SDS011;32313;48.722;9.362;2023-04-03T05:55:31;8.97;;;8.27;;
46589;SDS011;32313;48.722;9.362;2023-04-03T05:57:57;9.23;;;8.53;;
46589;SDS011;32313;48.722;9.362;2023-04-03T06:00:22;9.40;;;8.80;;
46589;SDS011;32313;48.722;9.362;2023-04-03T06:02:58;8.53;;;7.93;;
46589;SDS011;32313;48.722;9.362;2023-04-03T06:05:24;8.03;;;7.63;;
46589;SDS011;32313;48.722;9.362;2023-04-03T06:07:50;8.93;;;8.43;;
46589;SDS011;32313;48.722;9.362;2023-04-03T06:10:16;8.73;;;8.13;;
46589;SDS011;32313;48.722;9.362;2023-04-03T06:12:43;8.93;;;8.33;;
46589;SDS011;32313;48.722;9.362;2023-04-03T06:15:09;8.60;;;7.90;;
46589;SDS011;32313;48.722;9.362;2023-04-03T06:17:36;8.40;;;7.93;;
46589;SDS011;32313;48.722;9.362;2023-04-03T06:20:03;7.90;;;7.40;;
46589;SDS011;32313;48.722;9.362;2023-04-03T06:22:29;7.40;;;6.90;;
46589;SDS011;32313;48.722;9.362;2023-04-03T06:24:56;7.43;;;6.93;;
46589;SDS011;32313;48.722;9.362;2023-04-03T06:27:22;7.90;;;7.50;;
46589;SDS011;32313;48.722;9.362;2023-04-03T06:29:48;6.60;;;6.30;;
46589;SDS011;32313;48.722;9.362;2023-04-03T06:32:15;7.30;;;6.80;;
46589;SDS011;32313;48.722;9.362;2023-04-03T06:34:41;7.30;;;6.80;;
46589;SDS011;32313;48.722;9.362;2023-04-03T06:37:20;6.80;;;6.50;;
46589;SDS011;32313;48.722;9.362;2023-04-03T06:39:48;7.10;;;6.50;;
46589;SDS011;32313;48.722;9.362;2023-04-03T06:42:14;7.67;;;7.10;;
46589;SDS011;32313;48.722;9.362;2023-04-03T06:44:50;6.63;;;6.23;;
46589;SDS011;32313;48.722;9.362;2023-04-03T06:47:16;7.10;;;6.70;;
46589;SDS011;32313;48.722;9.362;2023-04-03T06:49:42;7.80;;;7.30;;
46589;SDS011;32313;48.722;9.362;2023-04-03T06:52:09;7.80;;;7.00;;
46589;SDS011;32313;48.722;9.362;2023-04-03T06:54:37;6.40;;;6.00;;
46589;SDS011;32313;48.722;9.362;2023-04-03T06:57:03;7.60;;;7.00;;
46589;SDS011;32313;48.722;9.362;2023-04-03T06:59:29;7.20;;;6.70;;
46589;SDS011;32313;48.722;9.362;2023-04-03T07:01:55;6.67;;;6.27;;
46589;SDS011;32313;48.722;9.362;2023-04-03T07:04:23;6.53;;;6.03;;
46589;SDS011;32313;48.722;9.362;2023-04-03T07:06:49;7.60;;;7.00;;
46589;SDS011;32313;48.722;9.362;2023-04-03T07:09:16;6.77;;;6.33;;
46589;SDS011;32313;48.722;9.362;2023-04-03T07:11:42;7.20;;;6.70;;
46589;SDS011;32313;48.722;9.362;2023-04-03T07:14:08;6.80;;;6.30;;
46589;SDS011;32313;48.722;9.362;2023-04-03T07:16:34;7.13;;;6.67;;
46589;SDS011;32313;48.722;9.362;2023-04-03T07:19:00;7.60;;;6.93;;
46589;SDS011;32313;48.722;9.362;2023-04-03T07:21:27;7.37;;;6.87;;
46589;SDS011;32313;48.722;9.362;2023-04-03T07:23:53;7.20;;;6.63;;
46589;SDS011;32313;48.722;9.362;2023-04-03T07:26:19;7.67;;;7.07;;
46589;SDS011;32313;48.722;9.362;2023-04-03T07:28:46;7.53;;;6.83;;
46589;SDS011;32313;48.722;9.362;2023-04-03T07:31:13;6.97;;;6.37;;
46589;SDS011;32313;48.722;9.362;2023-04-03T07:33:41;7.23;;;5.90;;
46589;SDS011;32313;48.722;9.362;2023-04-03T07:36:08;7.37;;;6.67;;
46589;SDS011;32313;48.722;9.362;2023-04-03T07:38:34;6.90;;;6.33;;
46589;SDS011;32313;48.722;9.362;2023-04-03T07:41:01;5.73;;;5.33;;
46589;SDS011;32313;48.722;9.362;2023-04-03T07:43:27;5.47;;;4.90;;
46589;SDS011;32313;48.722;9.362;2023-04-03T07:45:53;5.50;;;5.10;;
46589;SDS011;32313;48.722;9.362;2023-04-03T07:48:20;5.87;;;5.30;;
46589;SDS011;32313;48.722;9.362;2023-04-03T07:50:47;6.77;;;6.17;;
46589;SDS011;32313;48.722;9.362;2023-04-03T07:53:12;6.03;;;5.63;;
46589;SDS011;32313;48.722;9.362;2023-04-03T07:55:39;6.47;;;5.87;;
46589;SDS011;32313;48.722;9.362;2023-04-03T07:58:08;5.63;;;5.17;;
46589;SDS011;32313;48.722;9.362;2023-04-03T08:00:39;5.97;;;5.17;;
46589;SDS011;32313;48.722;9.362;2023-04-03T08:03:06;5.07;;;4.67;;
46589;SDS011;32313;48.722;9.362;2023-04-03T08:05:37;5.43;;;5.03;;
46589;SDS011;32313;48.722;9.362;2023-04-03T08:08:05;5.43;;;4.87;;
46589;SDS011;32313;48.722;9.362;2023-04-03T08:10:32;5.60;;;4.97;;
46589;SDS011;32313;48.722;9.362;2023-04-03T08:12:58;6.23;;;4.47;;
46589;SDS011;32313;48.722;9.362;2023-04-03T08:15:23;4.67;;;4.30;;
46589;SDS011;32313;48.722;9.362;2023-04-03T08:17:49;4.70;;;4.23;;
46589;SDS011;32313;48.722;9.362;2023-04-03T08:20:15;4.70;;;4.30;;
46589;SDS011;32313;48.722;9.362;2023-04-03T08:22:41;5.23;;;4.73;;
46589;SDS011;32313;48.722;9.362;2023-04-03T08:25:07;5.00;;;4.50;;
46589;SDS011;32313;48.722;9.362;2023-04-03T08:27:33;5.20;;;4.80;;
46589;SDS011;32313;48.722;9.362;2023-04-03T08:29:59;4.60;;;4.23;;
46589;SDS011;32313;48.722;9.362;2023-04-03T08:32:24;5.13;;;4.47;;
46589;SDS011;32313;48.722;9.362;2023-04-03T08:34:50;4.60;;;4.20;;
46589;SDS011;32313;48.722;9.362;2023-04-03T08:37:16;4.00;;;3.70;;
46589;SDS011;32313;48.722;9.362;2023-04-03T08:39:42;4.40;;;4.00;;
46589;SDS011;32313;48.722;9.362;2023-04-03T08:42:16;5.30;;;4.80;;
46589;SDS011;32313;48.722;9.362;2023-04-03T08:45:10;5.13;;;4.63;;
46589;SDS011;32313;48.722;9.362;2023-04-03T08:47:42;4.90;;;4.60;;
46589;SDS011;32313;48.722;9.362;2023-04-03T08:50:19;4.50;;;4.20;;
46589;SDS011;32313;48.722;9.362;2023-04-03T08:52:56;4.43;;;4.03;;
46589;SDS011;32313;48.722;9.362;2023-04-03T08:55:31;4.80;;;4.40;;
46589;SDS011;32313;48.722;9.362;2023-04-03T09:01:14;5.07;;;4.67;;
46589;SDS011;32313;48.722;9.362;2023-04-03T09:03:28;4.60;;;4.27;;
46589;SDS011;32313;48.722;9.362;2023-04-03T09:05:57;5.13;;;4.63;;
46589;SDS011;32313;48.722;9.362;2023-04-03T09:08:45;5.03;;;4.63;;
46589;SDS011;32313;48.722;9.362;2023-04-03T09:11:26;4.87;;;4.47;;
46589;SDS011;32313;48.722;9.362;2023-04-03T09:21:58;4.40;;;4.10;;
46589;SDS011;32313;48.722;9.362;2023-04-03T09:24:27;4.40;;;4.00;;
46589;SDS011;32313;48.722;9.362;2023-04-03T09:27:06;4.60;;;4.10;;
46589;SDS011;32313;48.722;9.362;2023-04-03T09:29:36;5.37;;;5.00;;
46589;SDS011;32313;48.722;9.362;2023-04-03T09:34:54;5.23;;;4.10;;
46589;SDS011;32313;48.722;9.362;2023-04-03T09:37:34;4.20;;;3.90;;
46589;SDS011;32313;48.722;9.362;2023-04-03T09:40:03;4.23;;;3.87;;
46589;SDS011;32313;48.722;9.362;2023-04-03T09:42:30;4.20;;;3.80;;
46589;SDS011;32313;48.722;9.362;2023-04-03T09:50:10;3.97;;;3.67;;
46589;SDS011;32313;48.722;9.362;2023-04-03T09:52:45;4.67;;;4.37;;
46589;SDS011;32313;48.722;9.362;2023-04-03T09:55:17;5.47;;;4.60;;
46589;SDS011;32313;48.722;9.362;2023-04-03T09:57:46;5.37;;;4.60;;
46589;SDS011;32313;48.722;9.362;2023-04-03T10:02:46;5.53;;;5.03;;
46589;SDS011;32313;48.722;9.362;2023-04-03T10:10:45;4.23;;;3.77;;
46589;SDS011;32313;48.722;9.362;2023-04-03T10:13:17;4.33;;;3.93;;
46589;SDS011;32313;48.722;9.362;2023-04-03T10:15:48;4.60;;;4.20;;
46589;SDS011;32313;48.722;9.362;2023-04-03T10:20:48;5.93;;;4.90;;
46589;SDS011;32313;48.722;9.362;2023-04-03T10:23:21;4.20;;;3.90;;
46589;SDS011;32313;48.722;9.362;2023-04-03T10:29:02;4.97;;;4.47;;
46589;SDS011;32313;48.722;9.362;2023-04-03T10:31:38;4.67;;;4.27;;
46589;SDS011;32313;48.722;9.362;2023-04-03T10:34:37;5.23;;;4.83;;
46589;SDS011;32313;48.722;9.362;2023-04-03T10:37:23;5.00;;;4.60;;
46589;SDS011;32313;48.722;9.362;2023-04-03T10:40:12;5.07;;;4.63;;
46589;SDS011;32313;48.722;9.362;2023-04-03T10:43:04;5.00;;;4.50;;
46589;SDS011;32313;48.722;9.362;2023-04-03T10:46:26;6.07;;;5.13;;
46589;SDS011;32313;48.722;9.362;2023-04-03T10:51:25;5.40;;;4.97;;
46589;SDS011;32313;48.722;9.362;2023-04-03T10:54:08;5.27;;;4.87;;
46589;SDS011;32313;48.722;9.362;2023-04-03T11:01:42;6.80;;;5.00;;
46589;SDS011;32313;48.722;9.362;2023-04-03T11:04:11;5.27;;;4.87;;
46589;SDS011;32313;48.722;9.362;2023-04-03T11:06:51;5.73;;;5.03;;
46589;SDS011;32313;48.722;9.362;2023-04-03T11:11:51;5.27;;;4.87;;
46589;SDS011;32313;48.722;9.362;2023-04-03T11:14:32;4.97;;;4.67;;
46589;SDS011;32313;48.722;9.362;2023-04-03T11:22:30;5.03;;;4.53;;
46589;SDS011;32313;48.722;9.362;2023-04-03T11:30:32;4.80;;;4.43;;
46589;SDS011;32313;48.722;9.362;2023-04-03T11:33:36;4.33;;;3.93;;
46589;SDS011;32313;48.722;9.362;2023-04-03T11:36:08;4.90;;;4.50;;
46589;SDS011;32313;48.722;9.362;2023-04-03T11:38:35;5.07;;;4.57;;
46589;SDS011;32313;48.722;9.362;2023-04-03T11:41:06;5.20;;;4.80;;
46589;SDS011;32313;48.722;9.362;2023-04-03T11:43:55;5.07;;;4.77;;
46589;SDS011;32313;48.722;9.362;2023-04-03T11:52:47;4.60;;;4.13;;
46589;SDS011;32313;48.722;9.362;2023-04-03T12:16:22;4.30;;;4.00;;
46589;SDS011;32313;48.722;9.362;2023-04-03T12:23:59;3.90;;;3.70;;
46589;SDS011;32313;48.722;9.362;2023-04-03T12:26:30;3.90;;;3.57;;
46589;SDS011;32313;48.722;9.362;2023-04-03T12:29:10;4.10;;;3.80;;
46589;SDS011;32313;48.722;9.362;2023-04-03T12:40:08;4.43;;;4.13;;
46589;SDS011;32313;48.722;9.362;2023-04-03T12:45:44;4.10;;;3.80;;
46589;SDS011;32313;48.722;9.362;2023-04-03T12:48:18;3.97;;;3.67;;
46589;SDS011;32313;48.722;9.362;2023-04-03T12:50:51;4.00;;;3.70;;
46589;SDS011;32313;48.722;9.362;2023-04-03T12:53:33;4.43;;;4.03;;
46589;SDS011;32313;48.722;9.362;2023-04-03T12:58:54;4.03;;;3.60;;
46589;SDS011;32313;48.722;9.362;2023-04-03T13:01:23;4.00;;;3.70;;
46589;SDS011;32313;48.722;9.362;2023-04-03T13:03:52;3.77;;;3.47;;
46589;SDS011;32313;48.722;9.362;2023-04-03T13:09:17;4.33;;;3.70;;
46589;SDS011;32313;48.722;9.362;2023-04-03T13:11:44;3.83;;;3.50;;
46589;SDS011;32313;48.722;9.362;2023-04-03T13:14:17;4.20;;;3.80;;
46589;SDS011;32313;48.722;9.362;2023-04-03T13:16:56;4.07;;;3.77;;
46589;SDS011;32313;48.722;9.362;2023-04-03T13:19:31;4.10;;;3.80;;
46589;SDS011;32313;48.722;9.362;2023-04-03T13:22:07;4.30;;;4.00;;
46589;SDS011;32313;48.722;9.362;2023-04-03T13:24:44;4.00;;;3.70;;
46589;SDS011;32313;48.722;9.362;2023-04-03T13:27:12;4.17;;;3.77;;
46589;SDS011;32313;48.722;9.362;2023-04-03T13:29:38;4.30;;;4.00;;
46589;SDS011;32313;48.722;9.362;2023-04-03T13:32:05;4.70;;;4.40;;
46589;SDS011;32313;48.722;9.362;2023-04-03T13:34:41;4.50;;;4.20;;
46589;SDS011;32313;48.722;9.362;2023-04-03T13:37:28;4.87;;;4.47;;
46589;SDS011;32313;48.722;9.362;2023-04-03T13:42:31;4.27;;;3.97;;
46589;SDS011;32313;48.722;9.362;2023-04-03T13:47:49;4.53;;;4.13;;
46589;SDS011;32313;48.722;9.362;2023-04-03T13:50:21;5.40;;;4.83;;
46589;SDS011;32313;48.722;9.362;2023-04-03T13:53:00;4.90;;;4.30;;
46589;SDS011;32313;48.722;9.362;2023-04-03T13:55:29;4.77;;;4.20;;
46589;SDS011;32313;48.722;9.362;2023-04-03T14:03:21;4.53;;;4.23;;
46589;SDS011;32313;48.722;9.362;2023-04-03T14:05:54;4.40;;;4.00;;
46589;SDS011;32313;48.722;9.362;2023-04-03T14:08:20;4.13;;;3.83;;
46589;SDS011;32313;48.722;9.362;2023-04-03T14:10:46;4.53;;;4.23;;
46589;SDS011;32313;48.722;9.362;2023-04-03T14:13:13;3.93;;;3.70;;
46589;SDS011;32313;48.722;9.362;2023-04-03T14:15:40;4.30;;;3.87;;
46589;SDS011;32313;48.722;9.362;2023-04-03T14:18:10;5.30;;;4.07;;
46589;SDS011;32313;48.722;9.362;2023-04-03T14:20:40;4.10;;;3.80;;
46589;SDS011;32313;48.722;9.362;2023-04-03T14:23:06;3.97;;;3.67;;
46589;SDS011;32313;48.722;9.362;2023-04-03T14:25:32;4.07;;;3.77;;
46589;SDS011;32313;48.722;9.362;2023-04-03T14:27:59;4.13;;;3.83;;
46589;SDS011;32313;48.722;9.362;2023-04-03T14:30:32;4.27;;;3.97;;
46589;SDS011;32313;48.722;9.362;2023-04-03T14:32:59;3.27;;;3.07;;
46589;SDS011;32313;48.722;9.362;2023-04-03T14:35:26;3.43;;;3.17;;
46589;SDS011;32313;48.722;9.362;2023-04-03T14:37:52;3.87;;;3.57;;
46589;SDS011;32313;48.722;9.362;2023-04-03T14:40:20;5.07;;;3.30;;
46589;SDS011;32313;48.722;9.362;2023-04-03T14:42:49;3.83;;;3.53;;
46589;SDS011;32313;48.722;9.362;2023-04-03T14:45:15;4.10;;;3.70;;
46589;SDS011;32313;48.722;9.362;2023-04-03T14:47:50;4.83;;;4.33;;
46589;SDS011;32313;48.722;9.362;2023-04-03T14:50:27;4.60;;;4.17;;
46589;SDS011;32313;48.722;9.362;2023-04-03T14:52:54;4.30;;;3.90;;
46589;SDS011;32313;48.722;9.362;2023-04-03T14:55:23;4.60;;;4.27;;
46589;SDS011;32313;48.722;9.362;2023-04-03T14:57:49;4.60;;;3.97;;
46589;SDS011;32313;48.722;9.362;2023-04-03T15:00:17;4.20;;;3.87;;
46589;SDS011;32313;48.722;9.362;2023-04-03T15:02:44;4.43;;;4.13;;
46589;SDS011;32313;48.722;9.362;2023-04-03T15:05:10;4.83;;;4.37;;
46589;SDS011;32313;48.722;9.362;2023-04-03T15:07:38;5.00;;;4.67;;
46589;SDS011;32313;48.722;9.362;2023-04-03T15:10:19;4.30;;;4.00;;
46589;SDS011;32313;48.722;9.362;2023-04-03T15:12:47;5.10;;;4.60;;
46589;SDS011;32313;48.722;9.362;2023-04-03T15:15:14;5.43;;;4.37;;
46589;SDS011;32313;48.722;9.362;2023-04-03T15:17:41;4.47;;;4.17;;
46589;SDS011;32313;48.722;9.362;2023-04-03T15:20:18;4.47;;;4.17;;
46589;SDS011;32313;48.722;9.362;2023-04-03T15:22:46;4.90;;;4.50;;
46589;SDS011;32313;48.722;9.362;2023-04-03T15:25:11;4.67;;;4.30;;
46589;SDS011;32313;48.722;9.362;2023-04-03T15:27:37;4.73;;;4.33;;
46589;SDS011;32313;48.722;9.362;2023-04-03T15:30:05;5.07;;;4.43;;
46589;SDS011;32313;48.722;9.362;2023-04-03T15:32:32;4.13;;;3.90;;
46589;SDS011;32313;48.722;9.362;2023-04-03T15:34:59;4.77;;;4.37;;
46589;SDS011;32313;48.722;9.362;2023-04-03T15:37:26;4.47;;;4.07;;
46589;SDS011;32313;48.722;9.362;2023-04-03T15:39:52;4.67;;;4.27;;
46589;SDS011;32313;48.722;9.362;2023-04-03T15:42:17;3.60;;;3.37;;
46589;SDS011;32313;48.722;9.362;2023-04-03T15:44:43;3.87;;;3.50;;
46589;SDS011;32313;48.722;9.362;2023-04-03T15:47:09;3.60;;;3.30;;
46589;SDS011;32313;48.722;9.362;2023-04-03T15:49:36;3.10;;;2.90;;
46589;SDS011;32313;48.722;9.362;2023-04-03T15:52:03;3.50;;;3.20;;
46589;SDS011;32313;48.722;9.362;2023-04-03T15:54:29;5.00;;;3.60;;
46589;SDS011;32313;48.722;9.362;2023-04-03T15:56:54;4.03;;;3.60;;
46589;SDS011;32313;48.722;9.362;2023-04-03T15:59:21;4.03;;;3.73;;
46589;SDS011;32313;48.722;9.362;2023-04-03T16:01:47;4.80;;;4.33;;
46589;SDS011;32313;48.722;9.362;2023-04-03T16:04:13;4.33;;;4.03;;
46589;SDS011;32313;48.722;9.362;2023-04-03T16:06:40;4.43;;;4.13;;
46589;SDS011;32313;48.722;9.362;2023-04-03T16:09:06;4.87;;;4.47;;
46589;SDS011;32313;48.722;9.362;2023-04-03T16:11:32;4.33;;;4.03;;
46589;SDS011;32313;48.722;9.362;2023-04-03T16:14:00;3.97;;;3.67;;
46589;SDS011;32313;48.722;9.362;2023-04-03T16:16:26;5.20;;;4.80;;
46589;SDS011;32313;48.722;9.362;2023-04-03T16:18:53;3.83;;;3.50;;
46589;SDS011;32313;48.722;9.362;2023-04-03T16:21:20;4.20;;;3.90;;
46589;SDS011;32313;48.722;9.362;2023-04-03T16:23:47;4.13;;;3.83;;
46589;SDS011;32313;48.722;9.362;2023-04-03T16:26:13;3.87;;;3.57;;
46589;SDS011;32313;48.722;9.362;2023-04-03T16:28:39;3.40;;;3.13;;
46589;SDS011;32313;48.722;9.362;2023-04-03T16:31:05;4.50;;;3.90;;
46589;SDS011;32313;48.722;9.362;2023-04-03T16:33:32;3.70;;;3.40;;
46589;SDS011;32313;48.722;9.362;2023-04-03T16:35:58;3.70;;;3.40;;
46589;SDS011;32313;48.722;9.362;2023-04-03T16:38:24;4.20;;;3.97;;
46589;SDS011;32313;48.722;9.362;2023-04-03T16:40:50;4.00;;;3.70;;
46589;SDS011;32313;48.722;9.362;2023-04-03T16:43:17;4.17;;;3.73;;
46589;SDS011;32313;48.722;9.362;2023-04-03T16:45:43;3.97;;;3.67;;
46589;SDS011;32313;48.722;9.362;2023-04-03T16:48:08;4.60;;;4.30;;
46589;SDS011;32313;48.722;9.362;2023-04-03T16:50:34;4.47;;;4.17;;
46589;SDS011;32313;48.722;9.362;2023-04-03T16:53:00;5.03;;;4.53;;
46589;SDS011;32313;48.722;9.362;2023-04-03T16:55:27;4.80;;;4.40;;
46589;SDS011;32313;48.722;9.362;2023-04-03T16:57:53;5.43;;;4.50;;
46589;SDS011;32313;48.722;9.362;2023-04-03T17:00:20;5.53;;;5.03;;